createdAt,value
2023-02-06T00:00:01.866Z,104340.47
2023-02-06T00:02:37.781Z,104345.94
2023-02-06T00:05:10.532Z,104338.31
2023-02-06T00:07:43.560Z,104339.38
2023-02-06T00:10:16.864Z,104336.66
2023-02-06T00:12:51.209Z,104332.84
2023-02-06T00:15:24.399Z,104336.06
2023-02-06T00:17:57.284Z,104331.19
2023-02-06T00:20:30.211Z,104331.78
2023-02-06T00:23:02.939Z,104338.25
2023-02-06T00:25:36.135Z,104333.38
2023-02-06T00:28:10.502Z,104336.06
2023-02-06T00:30:46.559Z,104334.97
2023-02-06T00:33:21.240Z,104333.03
2023-02-06T00:35:54.260Z,104336.06
2023-02-06T00:38:27.337Z,104329.56
2023-02-06T00:41:00.601Z,104332.22
2023-02-06T00:43:34.867Z,104337.94
2023-02-06T00:46:07.635Z,104336.66
2023-02-06T00:48:40.691Z,104330.34
2023-02-06T00:51:13.350Z,104326.19
2023-02-06T00:53:46.293Z,104322.38
2023-02-06T00:56:19.481Z,104322.38
2023-02-06T00:58:54.512Z,104314.97
2023-02-06T01:01:27.781Z,104316.91
2023-02-06T01:04:01.051Z,104329.19
2023-02-06T01:06:34.126Z,104329.16
2023-02-06T01:09:06.863Z,104315.78
2023-02-06T01:11:39.774Z,104312.81
2023-02-06T01:14:15.902Z,104315.75
2023-02-06T01:16:49.505Z,104311.91
2023-02-06T01:19:23.013Z,104313.81
2023-02-06T01:21:55.994Z,104322.03
2023-02-06T01:24:28.994Z,104323.41
2023-02-06T01:27:01.857Z,104320.75
2023-02-06T01:29:36.473Z,104321.53
2023-02-06T01:32:09.389Z,104317.97
2023-02-06T01:34:42.148Z,104313.56
2023-02-06T01:37:14.996Z,104319.03
2023-02-06T01:39:47.930Z,104315.81
2023-02-06T01:42:21.062Z,104319.03
2023-02-06T01:45:28.367Z,104310.31
2023-02-06T01:48:04.881Z,104309.81
2023-02-06T01:50:40.580Z,104319.03
2023-02-06T01:53:18.979Z,104307.03
2023-02-06T01:55:53.999Z,104303.50
2023-02-06T01:58:31.411Z,104304.00
2023-02-06T02:01:07.299Z,104307.31
2023-02-06T02:03:45.710Z,104311.13
2023-02-06T02:06:23.673Z,104309.19
2023-02-06T02:08:58.817Z,104310.28
2023-02-06T02:11:34.383Z,104302.63
2023-02-06T02:14:10.144Z,104308.09
2023-02-06T02:16:53.489Z,104308.94
2023-02-06T02:19:55.658Z,104306.19
2023-02-06T02:23:02.590Z,104302.69
2023-02-06T02:26:03.434Z,104292.56
2023-02-06T02:29:23.922Z,104278.59
2023-02-06T02:32:19.269Z,104284.34
2023-02-06T02:35:06.404Z,104278.59
2023-02-06T02:37:47.832Z,104285.97
2023-02-06T02:40:29.657Z,104278.91
2023-02-06T02:43:12.856Z,104273.69
2023-02-06T02:45:52.543Z,104278.06
2023-02-06T02:48:31.158Z,104270.19
2023-02-06T02:51:05.809Z,104269.59
2023-02-06T02:53:38.779Z,104269.88
2023-02-06T02:56:17.721Z,104275.88
2023-02-06T02:58:54.603Z,104279.66
2023-02-06T03:01:32.840Z,104275.88
2023-02-06T03:04:13.259Z,104281.06
2023-02-06T03:07:03.982Z,104275.28
2023-02-06T03:09:47.567Z,104278.28
2023-02-06T03:12:25.233Z,104279.16
2023-02-06T03:15:02.480Z,104277.47
2023-02-06T03:17:39.195Z,104275.31
2023-02-06T03:20:19.499Z,104281.88
2023-02-06T03:22:56.594Z,104285.44
2023-02-06T03:25:37.171Z,104287.84
2023-02-06T03:28:18.142Z,104284.00
2023-02-06T03:30:57.657Z,104293.84
2023-02-06T03:33:36.721Z,104302.31
2023-02-06T03:36:15.406Z,104294.63
2023-02-06T03:38:52.208Z,104290.56
2023-02-06T03:41:30.511Z,104292.22
2023-02-06T03:44:07.385Z,104296.03
2023-02-06T03:46:42.755Z,104289.69
2023-02-06T03:49:17.797Z,104299.53
2023-02-06T03:51:54.795Z,104298.72
2023-02-06T03:54:31.593Z,104294.34
2023-02-06T03:57:07.740Z,104280.69
2023-02-06T03:59:40.692Z,104288.31
2023-02-06T04:02:14.580Z,104282.88
2023-02-06T04:04:47.671Z,104280.13
2023-02-06T04:07:25.925Z,104286.16
2023-02-06T04:10:00.015Z,104278.50
2023-02-06T04:12:33.114Z,104270.56
2023-02-06T04:15:06.374Z,104283.94
2023-02-06T04:17:53.636Z,104282.03
2023-02-06T04:20:32.013Z,104282.25
2023-02-06T04:23:04.646Z,104282.25
2023-02-06T04:25:38.987Z,104282.25
2023-02-06T04:28:12.019Z,104272.69
2023-02-06T04:30:44.901Z,104292.06
2023-02-06T04:33:20.482Z,104284.16
2023-02-06T04:35:53.253Z,104283.56
2023-02-06T04:38:26.089Z,104284.38
2023-02-06T04:41:04.778Z,104285.75
2023-02-06T04:43:37.645Z,104291.94
2023-02-06T04:46:10.590Z,104296.28
2023-02-06T04:48:43.566Z,104297.94
2023-02-06T04:51:16.455Z,104293.88
2023-02-06T04:53:49.249Z,104296.28
2023-02-06T04:56:25.544Z,104298.00
2023-02-06T04:58:58.534Z,104296.88
2023-02-06T05:01:31.394Z,104298.47
2023-02-06T05:04:04.374Z,104293.00
2023-02-06T05:06:37.545Z,104288.38
2023-02-06T05:09:11.108Z,104292.44
2023-02-06T05:11:48.389Z,104289.38
2023-02-06T05:14:21.468Z,104286.91
2023-02-06T05:16:54.363Z,104288.28
2023-02-06T05:19:27.249Z,104291.28
2023-02-06T05:21:59.840Z,104291.06
2023-02-06T05:24:32.785Z,104282.59
2023-02-06T05:27:06.823Z,104279.53
2023-02-06T05:29:39.711Z,104274.84
2023-02-06T05:32:12.912Z,104266.66
2023-02-06T05:34:46.225Z,104270.47
2023-02-06T05:37:19.135Z,104272.72
2023-02-06T05:39:51.887Z,104261.22
2023-02-06T05:42:26.196Z,104244.78
2023-02-06T05:44:59.297Z,104243.19
2023-02-06T05:47:35.297Z,104247.34
2023-02-06T05:50:08.677Z,104248.94
2023-02-06T05:52:42.040Z,104262.34
2023-02-06T05:55:17.083Z,104258.59
2023-02-06T05:57:51.675Z,104259.63
2023-02-06T06:00:27.764Z,104266.66
2023-02-06T06:03:00.654Z,104277.63
2023-02-06T06:05:34.359Z,104270.00
2023-02-06T06:08:07.242Z,104268.63
2023-02-06T06:10:40.183Z,104264.53
2023-02-06T06:13:14.245Z,104264.81
2023-02-06T06:15:50.592Z,104265.09
2023-02-06T06:18:23.581Z,104264.25
2023-02-06T06:20:56.532Z,104252.00
2023-02-06T06:23:29.494Z,104254.44
2023-02-06T06:26:02.348Z,104267.16
2023-02-06T06:28:38.540Z,104270.75
2023-02-06T06:31:12.774Z,104270.47
2023-02-06T06:33:46.010Z,104272.09
2023-02-06T06:36:26.961Z,104274.50
2023-02-06T06:39:23.422Z,104274.50
2023-02-06T06:42:02.906Z,104262.88
2023-02-06T06:44:44.669Z,104270.41
2023-02-06T06:47:17.822Z,104264.41
2023-02-06T06:50:12.916Z,104261.97
2023-02-06T06:52:56.653Z,104268.56
2023-02-06T06:55:45.146Z,104269.88
2023-02-06T06:58:23.857Z,104270.97
2023-02-06T07:01:01.337Z,104267.41
2023-02-06T07:03:34.495Z,104273.97
2023-02-06T07:06:07.722Z,104273.69
2023-02-06T07:08:42.162Z,104271.22
2023-02-06T07:11:16.981Z,104284.00
2023-02-06T07:13:49.935Z,104279.63
2023-02-06T07:16:24.813Z,104278.03
2023-02-06T07:18:58.030Z,104270.91
2023-02-06T07:21:31.340Z,104270.63
2023-02-06T07:24:05.428Z,104268.78
2023-02-06T07:26:38.488Z,104269.31
2023-02-06T07:29:11.451Z,104274.22
2023-02-06T07:31:48.073Z,104263.25
2023-02-06T07:34:21.234Z,104256.22
2023-02-06T07:36:54.098Z,104256.94
2023-02-06T07:39:27.074Z,104261.06
2023-02-06T07:42:00.049Z,104264.34
2023-02-06T07:44:38.996Z,104265.09
2023-02-06T07:47:13.051Z,104259.38
2023-02-06T07:49:46.016Z,104256.94
2023-02-06T07:52:20.152Z,104255.03
2023-02-06T07:54:53.135Z,104263.66
2023-02-06T07:57:26.122Z,104254.91
2023-02-06T07:59:59.085Z,104254.66
2023-02-06T08:02:33.218Z,104251.34
2023-02-06T08:05:06.632Z,104257.06
2023-02-06T08:07:39.577Z,104254.06
2023-02-06T08:10:12.442Z,104256.19
2023-02-06T08:12:45.987Z,104246.97
2023-02-06T08:15:19.678Z,104241.84
2023-02-06T08:17:54.369Z,104230.34
2023-02-06T08:20:29.218Z,104225.44
2023-02-06T08:23:02.328Z,104215.63
2023-02-06T08:25:37.990Z,104213.44
2023-02-06T08:28:15.041Z,104196.88
2023-02-06T08:30:50.626Z,104203.97
2023-02-06T08:33:28.442Z,104208.06
2023-02-06T08:36:03.090Z,104208.06
2023-02-06T08:38:39.933Z,104209.13
2023-02-06T08:41:24.011Z,104202.06
2023-02-06T08:43:58.219Z,104208.38
2023-02-06T08:46:33.528Z,104199.91
2023-02-06T08:49:12.413Z,104186.78
2023-02-06T08:51:45.939Z,104178.63
2023-02-06T08:54:20.661Z,104178.34
2023-02-06T08:56:58.555Z,104186.25
2023-02-06T08:59:31.572Z,104177.84
2023-02-06T09:02:06.047Z,104180.25
2023-02-06T09:04:42.731Z,104170.44
2023-02-06T09:07:17.343Z,104163.13
2023-02-06T09:09:50.546Z,104161.72
2023-02-06T09:12:23.436Z,104159.31
2023-02-06T09:14:56.353Z,104152.81
2023-02-06T09:17:31.683Z,104153.97
2023-02-06T09:20:06.279Z,104144.91
2023-02-06T09:22:41.241Z,104148.47
2023-02-06T09:25:14.008Z,104154.78
2023-02-06T09:27:47.476Z,104156.97
2023-02-06T09:30:20.577Z,104159.69
2023-02-06T09:32:53.579Z,104159.47
2023-02-06T09:35:27.935Z,104158.69
2023-02-06T09:38:01.151Z,104159.81
2023-02-06T09:40:36.321Z,104148.06
2023-02-06T09:43:13.129Z,104143.47
2023-02-06T09:45:46.308Z,104142.75
2023-02-06T09:48:21.518Z,104135.91
2023-02-06T09:51:08.275Z,104137.88
2023-02-06T09:53:48.636Z,104132.16
2023-02-06T09:56:30.960Z,104146.44
2023-02-06T09:59:11.319Z,104148.13
2023-02-06T10:01:48.800Z,104153.91
2023-02-06T10:04:36.083Z,104152.28
2023-02-06T10:07:22.404Z,104156.38
2023-02-06T10:09:59.656Z,104157.22
2023-02-06T10:12:38.819Z,104167.59
2023-02-06T10:15:15.860Z,104171.44
2023-02-06T10:17:54.554Z,104170.91
2023-02-06T10:20:34.704Z,104179.34
2023-02-06T10:23:16.730Z,104181.84
2023-02-06T10:25:58.860Z,104162.19
2023-02-06T10:28:35.337Z,104163.00
2023-02-06T10:31:24.551Z,104169.25
2023-02-06T10:34:29.659Z,104161.31
2023-02-06T10:37:19.322Z,104168.16
2023-02-06T10:40:12.066Z,104172.00
2023-02-06T10:42:55.934Z,104171.97
2023-02-06T10:45:39.961Z,104171.16
2023-02-06T10:48:22.480Z,104173.34
2023-02-06T10:51:01.086Z,104171.38
2023-02-06T10:53:37.231Z,104176.56
2023-02-06T10:56:14.289Z,104177.69
2023-02-06T10:58:51.219Z,104177.03
2023-02-06T11:01:27.217Z,104183.91
2023-02-06T11:04:08.649Z,104181.91
2023-02-06T11:06:46.871Z,104177.47
2023-02-06T11:09:20.042Z,104181.91
2023-02-06T11:11:58.128Z,104175.84
2023-02-06T11:14:35.726Z,104164.00
2023-02-06T11:17:08.772Z,104161.16
2023-02-06T11:19:44.568Z,104162.53
2023-02-06T11:22:27.119Z,104157.66
2023-02-06T11:25:03.296Z,104155.94
2023-02-06T11:27:37.780Z,104158.91
2023-02-06T11:30:26.280Z,104143.56
2023-02-06T11:33:04.915Z,104143.91
2023-02-06T11:35:41.266Z,104143.16
2023-02-06T11:38:17.084Z,104147.00
2023-02-06T11:40:59.296Z,104152.44
2023-02-06T11:43:48.570Z,104131.03
2023-02-06T11:46:25.798Z,104133.59
2023-02-06T11:49:23.012Z,104127.16
2023-02-06T11:51:59.655Z,104131.91
2023-02-06T11:54:35.181Z,104121.59
2023-02-06T11:57:20.805Z,104119.09
2023-02-06T11:59:57.925Z,104108.41
2023-02-06T12:02:33.409Z,104104.56
2023-02-06T12:05:12.972Z,104110.06
2023-02-06T12:07:53.659Z,104091.16
2023-02-06T12:10:42.237Z,104097.09
2023-02-06T12:13:21.946Z,104094.69
2023-02-06T12:16:02.282Z,104090.97
2023-02-06T12:18:38.620Z,104098.91
2023-02-06T12:21:15.208Z,104101.59
2023-02-06T12:23:55.701Z,104091.94
2023-02-06T12:26:32.173Z,104080.63
2023-02-06T12:29:11.121Z,104077.50
2023-02-06T12:31:54.631Z,104075.56
2023-02-06T12:34:42.587Z,104072.56
2023-02-06T12:37:21.476Z,104079.88
2023-02-06T12:39:57.086Z,104090.13
2023-02-06T12:42:40.536Z,104083.00
2023-02-06T12:45:24.891Z,104077.06
2023-02-06T12:48:05.933Z,104069.94
2023-02-06T12:50:48.909Z,104060.50
2023-02-06T12:53:30.013Z,104053.09
2023-02-06T12:56:06.801Z,104047.06
2023-02-06T12:58:51.761Z,104041.06
2023-02-06T13:01:59.314Z,104046.25
2023-02-06T13:04:37.933Z,104045.59
2023-02-06T13:07:14.627Z,104050.78
2023-02-06T13:09:51.228Z,104050.03
2023-02-06T13:12:26.785Z,104044.84
2023-02-06T13:15:03.341Z,104044.41
2023-02-06T13:17:41.465Z,104048.25
2023-02-06T13:20:18.132Z,104043.34
2023-02-06T13:22:53.948Z,104044.09
2023-02-06T13:25:54.263Z,104033.81
2023-02-06T13:29:09.763Z,104038.66
2023-02-06T13:31:42.774Z,104035.72
2023-02-06T13:34:18.287Z,104025.59
2023-02-06T13:36:55.840Z,104028.25
2023-02-06T13:39:32.528Z,104018.47
2023-02-06T13:42:40.255Z,104032.66
2023-02-06T13:45:19.980Z,104029.34
2023-02-06T13:48:34.112Z,104035.44
2023-02-06T13:51:38.793Z,104017.28
2023-02-06T13:54:51.440Z,104012.09
2023-02-06T13:57:39.056Z,104017.00
2023-02-06T14:00:16.646Z,104011.13
2023-02-06T14:02:52.746Z,104006.47
2023-02-06T14:05:32.952Z,104000.06
2023-02-06T14:08:19.520Z,104002.97
2023-02-06T14:11:13.825Z,104008.69
2023-02-06T14:14:06.831Z,104008.09
2023-02-06T14:16:50.511Z,104015.19
2023-02-06T14:19:32.444Z,104013.84
2023-02-06T14:22:18.003Z,104009.56
2023-02-06T14:25:09.844Z,104021.09
2023-02-06T14:27:59.309Z,104017.78
2023-02-06T14:30:42.740Z,104017.44
2023-02-06T14:33:44.509Z,104017.66
2023-02-06T14:36:30.878Z,104013.41
2023-02-06T14:39:32.262Z,104008.78
2023-02-06T14:42:13.200Z,104011.59
2023-02-06T14:44:53.981Z,104016.22
2023-02-06T14:47:30.273Z,104011.34
2023-02-06T14:50:03.333Z,104012.97
2023-02-06T14:52:37.121Z,104018.50
2023-02-06T14:55:31.886Z,104015.53
2023-02-06T14:58:06.952Z,104022.09
2023-02-06T15:00:41.176Z,104015.53
2023-02-06T15:03:17.524Z,104016.16
2023-02-06T15:06:05.032Z,104014.47
2023-02-06T15:08:38.358Z,104017.50
2023-02-06T15:11:21.216Z,104019.41
2023-02-06T15:13:59.757Z,104021.03
2023-02-06T15:16:46.279Z,104022.16
2023-02-06T15:19:21.054Z,104013.13
2023-02-06T15:21:59.452Z,104020.53
2023-02-06T15:24:46.097Z,104019.41
2023-02-06T15:27:27.907Z,104023.03
2023-02-06T15:30:02.750Z,104015.63
2023-02-06T15:32:41.084Z,104018.59
2023-02-06T15:35:21.739Z,104019.44
2023-02-06T15:37:56.731Z,104026.38
2023-02-06T15:40:33.792Z,104024.72
2023-02-06T15:43:16.541Z,104032.09
2023-02-06T15:45:51.622Z,104024.22
2023-02-06T15:48:31.821Z,104022.81
2023-02-06T15:51:19.726Z,104022.59
2023-02-06T15:54:05.700Z,104036.56
2023-02-06T15:56:42.074Z,104042.06
2023-02-06T15:59:19.372Z,104037.63
2023-02-06T16:01:56.312Z,104036.00
2023-02-06T16:04:33.774Z,104026.16
2023-02-06T16:07:13.747Z,104031.91
2023-02-06T16:09:51.735Z,104025.66
2023-02-06T16:12:24.873Z,104026.75
2023-02-06T16:14:59.693Z,104024.31
2023-02-06T16:17:38.304Z,104020.41
2023-02-06T16:20:35.662Z,104010.63
2023-02-06T16:23:24.116Z,104011.16
2023-02-06T16:26:09.749Z,104009.53
2023-02-06T16:28:59.146Z,104002.72
2023-02-06T16:31:39.963Z,104000.53
2023-02-06T16:34:23.129Z,104004.91
2023-02-06T16:36:57.682Z,104005.25
2023-02-06T16:39:38.182Z,104008.00
2023-02-06T16:42:16.603Z,104016.53
2023-02-06T16:44:52.858Z,104022.00
2023-02-06T16:47:26.057Z,104033.50
2023-02-06T16:49:59.128Z,104039.25
2023-02-06T16:52:40.269Z,104029.66
2023-02-06T16:55:18.144Z,104043.94
2023-02-06T16:58:00.117Z,104047.25
2023-02-06T17:00:39.093Z,104047.25
2023-02-06T17:03:16.375Z,104039.06
2023-02-06T17:06:04.692Z,104035.50
2023-02-06T17:08:42.926Z,104034.13
2023-02-06T17:11:19.154Z,104030.56
2023-02-06T17:13:52.230Z,104042.41
2023-02-06T17:16:33.721Z,104042.94
2023-02-06T17:19:21.340Z,104028.53
2023-02-06T17:21:54.326Z,104030.19
2023-02-06T17:24:29.475Z,104031.53
2023-02-06T17:27:04.864Z,104042.22
2023-02-06T17:29:48.599Z,104030.22
2023-02-06T17:32:23.713Z,104032.13
2023-02-06T17:34:58.242Z,104028.84
2023-02-06T17:37:31.412Z,104023.38
2023-02-06T17:40:06.800Z,104032.41
2023-02-06T17:42:39.974Z,104025.31
2023-02-06T17:45:13.243Z,104028.34
2023-02-06T17:47:46.412Z,104030.28
2023-02-06T17:50:22.615Z,104031.13
2023-02-06T17:52:56.282Z,104032.75
2023-02-06T17:55:33.870Z,104028.41
2023-02-06T17:58:12.961Z,104028.41
2023-02-06T18:00:49.456Z,104025.13
2023-02-06T18:03:26.218Z,104025.66
2023-02-06T18:06:00.436Z,104019.38
2023-02-06T18:08:33.855Z,104024.66
2023-02-06T18:11:21.192Z,104021.63
2023-02-06T18:13:58.514Z,104008.78
2023-02-06T18:16:43.963Z,104012.66
2023-02-06T18:19:27.220Z,104013.22
2023-02-06T18:22:02.533Z,104007.75
2023-02-06T18:24:42.380Z,104010.47
2023-02-06T18:27:27.588Z,104000.66
2023-02-06T18:30:04.713Z,104004.75
2023-02-06T18:32:41.131Z,103997.38
2023-02-06T18:39:05.587Z,103983.19
2023-02-06T18:41:58.907Z,103990.25
2023-02-06T18:44:41.710Z,103980.16
2023-02-06T18:47:16.723Z,103986.47
2023-02-06T18:49:53.271Z,103980.44
2023-02-06T18:52:26.444Z,103973.63
2023-02-06T18:54:59.691Z,103965.41
2023-02-06T18:57:32.899Z,103964.34
2023-02-06T19:00:13.865Z,103966.81
2023-02-06T19:02:47.702Z,103970.59
2023-02-06T19:05:21.651Z,103970.34
2023-02-06T19:07:55.048Z,103968.72
2023-02-06T19:10:41.820Z,103966.53
2023-02-06T19:13:17.416Z,103968.44
2023-02-06T19:15:51.928Z,103971.69
2023-02-06T19:18:37.603Z,103977.72
2023-02-06T19:21:23.326Z,103967.88
2023-02-06T19:23:59.288Z,103968.44
2023-02-06T19:26:36.215Z,103972.78
2023-02-06T19:29:34.455Z,103969.50
2023-02-06T19:32:13.637Z,103970.84
2023-02-06T19:34:49.789Z,103967.03
2023-02-06T19:37:25.101Z,103973.88
2023-02-06T19:40:03.500Z,103972.50
2023-02-06T19:42:39.335Z,103972.78
2023-02-06T19:45:12.801Z,103972.22
2023-02-06T19:47:48.306Z,103969.50
2023-02-06T19:50:23.466Z,103964.31
2023-02-06T19:52:56.400Z,103958.03
2023-02-06T19:55:31.260Z,103950.94
2023-02-06T19:58:10.323Z,103949.84
2023-02-06T20:00:56.856Z,103943.22
2023-02-06T20:03:40.252Z,103941.31
2023-02-06T20:06:15.284Z,103948.13
2023-02-06T20:08:51.208Z,103942.19
2023-02-06T20:11:25.236Z,103944.59
2023-02-06T20:14:03.496Z,103934.28
2023-02-06T20:16:42.357Z,103933.13
2023-02-06T20:19:22.098Z,103936.69
2023-02-06T20:21:59.955Z,103939.91
2023-02-06T20:24:37.256Z,103936.66
2023-02-06T20:27:14.264Z,103932.88
2023-02-06T20:29:57.284Z,103941.59
2023-02-06T20:32:42.877Z,103932.00
2023-02-06T20:35:23.869Z,103938.88
2023-02-06T20:38:05.998Z,103944.31
2023-02-06T20:40:43.807Z,103941.00
2023-02-06T20:43:22.410Z,103941.59
2023-02-06T20:45:59.968Z,103939.63
2023-02-06T20:48:40.012Z,103936.34
2023-02-06T20:51:24.625Z,103930.09
2023-02-06T20:54:07.726Z,103933.34
2023-02-06T20:56:42.492Z,103942.63
2023-02-06T20:59:18.398Z,103935.25
2023-02-06T21:01:51.639Z,103947.78
2023-02-06T21:04:24.589Z,103936.09
2023-02-06T21:06:59.334Z,103949.72
2023-02-06T21:09:32.569Z,103944.22
2023-02-06T21:12:06.075Z,103948.59
2023-02-06T21:14:39.324Z,103947.75
2023-02-06T21:17:12.683Z,103960.56
2023-02-06T21:19:48.246Z,103970.91
2023-02-06T21:22:25.335Z,103968.47
2023-02-06T21:24:58.416Z,103959.75
2023-02-06T21:27:31.787Z,103960.53
2023-02-06T21:30:05.819Z,103960.53
2023-02-06T21:32:38.686Z,103962.19
2023-02-06T21:35:11.937Z,103956.13
2023-02-06T21:37:46.411Z,103954.53
2023-02-06T21:40:19.906Z,103959.91
2023-02-06T21:42:53.227Z,103953.91
2023-02-06T21:45:28.612Z,103953.94
2023-02-06T21:48:01.527Z,103957.75
2023-02-06T21:50:34.920Z,103959.09
2023-02-06T21:53:10.231Z,103957.75
2023-02-06T21:55:44.204Z,103945.16
2023-02-06T21:58:17.132Z,103946.28
2023-02-06T22:00:49.968Z,103945.69
2023-02-06T22:03:24.250Z,103940.75
2023-02-06T22:06:07.512Z,103937.75
2023-02-06T22:08:42.597Z,103936.41
2023-02-06T22:11:16.688Z,103941.31
2023-02-06T22:13:50.103Z,103931.50
2023-02-06T22:16:27.747Z,103936.94
2023-02-06T22:19:01.372Z,103936.91
2023-02-06T22:21:35.655Z,103936.38
2023-02-06T22:24:12.481Z,103924.66
2023-02-06T22:26:45.973Z,103934.72
2023-02-06T22:29:19.346Z,103934.19
2023-02-06T22:31:52.300Z,103928.72
2023-02-06T22:34:24.945Z,103932.50
2023-02-06T22:36:58.046Z,103932.50
2023-02-06T22:39:32.317Z,103930.88
2023-02-06T22:42:05.435Z,103924.84
2023-02-06T22:44:38.296Z,103933.56
2023-02-06T22:47:11.255Z,103943.34
2023-02-06T22:49:44.329Z,103951.53
2023-02-06T22:52:34.557Z,103952.59
2023-02-06T22:55:09.655Z,103953.16
2023-02-06T22:57:42.500Z,103947.13
2023-02-06T23:00:18.417Z,103952.84
2023-02-06T23:02:51.365Z,103948.22
2023-02-06T23:05:25.048Z,103945.44
2023-02-06T23:07:57.972Z,103951.47
2023-02-06T23:10:32.050Z,103948.44
2023-02-06T23:13:04.999Z,103948.13
2023-02-06T23:15:41.021Z,103951.94
2023-02-06T23:18:14.093Z,103956.59
2023-02-06T23:20:46.807Z,103959.59
2023-02-06T23:23:19.810Z,103956.34
2023-02-06T23:25:54.593Z,103961.19
2023-02-06T23:28:34.474Z,103961.72
2023-02-06T23:31:11.811Z,103963.56
2023-02-06T23:33:47.956Z,103964.16
2023-02-06T23:36:27.128Z,103965.53
2023-02-06T23:39:16.038Z,103965.53
2023-02-06T23:41:50.930Z,103954.59
2023-02-06T23:45:07.958Z,103944.19
2023-02-06T23:47:40.897Z,103944.72
2023-02-06T23:50:26.633Z,103940.44
2023-02-06T23:52:59.591Z,103945.56
2023-02-06T23:55:32.340Z,103945.25
2023-02-06T23:58:07.349Z,103946.84
